KPSP/PSP METAR and TAF weather

Enter ICAO airport designator
Station Type Date Time Source
KPSP METAR 2020/12/01 20:53 UTC NOAA

KPSP 012053Z 00000KT 10SM CLR 28/M08 A3005 RMK AO2 SLP174 T02781083 58027


Station Type Date Time Source
KPSP Decoded METAR 2020/12/01 20:53 UTC NOAA

PALM SPRINGS REGIONAL AIRPORT , CA, United States (KPSP) 33-50N 116-30W 135M
Dec 01, 2020 - 03:53 PM EST / 2020.12.01 2053 UTC
Wind: Calm:0
Visibility: 10 mile(s):0
Sky conditions: clear
Temperature: 82.0 F (27.8 C)
Dew Point: 17.1 F (-8.3 C)
Relative Humidity: 8%
Pressure (altimeter): 30.05 in. Hg (1017 hPa)
Pressure tendency: 0.08 inches (2.7 hPa) lower than three hours ago
ob: KPSP 012053Z 00000KT 10SM CLR 28/M08 A3005 RMK AO2 SLP174 T02781083 58027
cycle: 21

Station Type Date Time Source
KPSP TAF 2020/12/01 18:22 UTC NOAA

TAF KPSP 011720Z 0118/0218 VRB04KT P6SM SKC
FM012000 11006KT P6SM SKC
FM020400 33007KT P6SM SKC

Example: see airport list